Time;durP1;ratioP1;P1;durP2;ratioP2;P2;SDS_P1;SDS_P2;PMS_P1;PMS_P2;Temp;Humidity;BMP_temperature;BMP_pressure;BME280_temperature;BME280_humidity;BME280_pressure;Samples;Min_cycle;Max_cycle;Signal;HPM_P1;HPM_P2
2022/05/20 00:00:17;;;;;;;3.47;2.47;;;21.50;58.80;;;;;;5054377;28;20449;-64
2022/05/20 00:02:44;;;;;;;3.17;2.70;;;21.50;59.00;;;;;;5054126;28;20448;-64
2022/05/20 00:05:11;;;;;;;5.20;2.33;;;21.40;58.80;;;;;;5052960;28;20445;-64
2022/05/20 00:07:39;;;;;;;3.40;2.70;;;21.40;58.80;;;;;;5054497;28;20480;-64
2022/05/20 00:10:08;;;;;;;3.83;2.90;;;21.40;58.70;;;;;;5053629;28;20491;-64
2022/05/20 00:12:36;;;;;;;3.50;2.53;;;21.30;58.80;;;;;;5054441;28;20873;-65
2022/05/20 00:15:04;;;;;;;5.13;2.67;;;21.30;59.10;;;;;;5053684;28;20429;-65
2022/05/20 00:17:32;;;;;;;6.53;3.17;;;21.20;59.80;;;;;;5054282;28;20494;-64
2022/05/20 00:19:59;;;;;;;3.53;2.43;;;20.90;60.70;;;;;;5052290;28;20437;-64
2022/05/20 00:22:26;;;;;;;5.90;2.47;;;20.80;62.00;;;;;;5054109;28;20937;-64
2022/05/20 00:27:36;;;;;;;3.40;2.60;;;20.50;63.70;;;;;;5053264;28;20519;-65
2022/05/20 00:30:04;;;;;;;4.00;3.10;;;20.50;64.00;;;;;;5053421;28;20970;-65
2022/05/20 00:32:32;;;;;;;4.90;3.00;;;20.40;64.10;;;;;;5053297;28;20503;-64
2022/05/20 00:34:59;;;;;;;5.73;3.30;;;20.30;65.20;;;;;;5053168;28;20433;-65
2022/05/20 00:37:26;;;;;;;5.37;3.40;;;20.20;65.20;;;;;;5053490;28;20532;-66
2022/05/20 00:39:53;;;;;;;4.57;2.83;;;20.20;65.80;;;;;;5052882;28;20920;-65
2022/05/20 00:42:21;;;;;;;5.50;4.20;;;20.20;65.90;;;;;;5053902;28;20447;-65
2022/05/20 00:44:48;;;;;;;4.40;3.17;;;20.10;66.20;;;;;;5052910;28;20888;-65
2022/05/20 00:47:15;;;;;;;4.33;3.10;;;20.00;66.80;;;;;;5053590;28;20456;-65
2022/05/20 00:49:47;;;;;;;4.20;3.50;;;20.00;66.90;;;;;;5052790;28;20441;-65
2022/05/20 00:52:17;;;;;;;5.43;2.80;;;19.90;67.30;;;;;;5053458;28;20483;-65
2022/05/20 00:54:47;;;;;;;4.00;3.23;;;19.90;67.10;;;;;;5051817;28;20523;-64
2022/05/20 00:57:18;;;;;;;5.63;3.27;;;19.90;67.30;;;;;;5053413;28;20520;-65
2022/05/20 00:59:51;;;;;;;5.43;3.17;;;19.90;67.60;;;;;;5052736;28;20789;-64
2022/05/20 01:02:21;;;;;;;4.40;3.03;;;19.90;68.10;;;;;;5053515;28;20619;-64
2022/05/20 01:04:50;;;;;;;4.50;3.23;;;19.80;68.90;;;;;;5052648;28;20441;-64
2022/05/20 01:07:19;;;;;;;5.00;3.80;;;19.70;70.20;;;;;;5053255;28;20907;-65
2022/05/20 01:09:47;;;;;;;4.60;3.07;;;19.50;71.30;;;;;;5052428;28;20540;-64
2022/05/20 01:12:13;;;;;;;4.57;3.67;;;19.40;72.00;;;;;;5053242;28;20477;-65
2022/05/20 01:14:41;;;;;;;4.60;2.93;;;19.30;73.00;;;;;;5052534;28;20447;-64
2022/05/20 01:17:09;;;;;;;4.90;3.57;;;19.30;73.50;;;;;;5051999;28;20471;-65
2022/05/20 01:19:40;;;;;;;4.63;3.50;;;19.30;74.70;;;;;;5053040;28;20520;-64
2022/05/20 01:22:11;;;;;;;12.33;3.53;;;19.30;74.00;;;;;;5052754;28;20437;-65
2022/05/20 01:24:39;;;;;;;4.50;3.63;;;19.30;74.70;;;;;;5053027;28;20451;-65
2022/05/20 01:27:06;;;;;;;4.20;3.43;;;19.20;74.90;;;;;;5052165;28;20437;-64
2022/05/20 01:29:33;;;;;;;3.73;2.80;;;19.20;75.40;;;;;;5053059;28;20773;-65
2022/05/20 01:32:00;;;;;;;5.20;3.37;;;19.10;75.80;;;;;;5051451;28;20560;-65
2022/05/20 01:34:27;;;;;;;6.90;3.37;;;19.00;77.80;;;;;;5052375;28;20529;-65
2022/05/20 01:36:54;;;;;;;5.17;3.00;;;18.90;77.80;;;;;;5051900;28;20451;-66
2022/05/20 01:39:21;;;;;;;4.97;3.07;;;18.90;77.90;;;;;;5052839;28;20437;-65
2022/05/20 01:41:56;;;;;;;5.33;3.60;;;18.90;78.30;;;;;;5050965;28;20535;-64
2022/05/20 01:44:29;;;;;;;5.20;3.27;;;19.00;78.80;;;;;;5052270;28;20460;-70
2022/05/20 01:47:04;;;;;;;7.87;4.07;;;19.00;78.70;;;;;;5050867;28;20972;-66
2022/05/20 01:49:40;;;;;;;6.73;3.60;;;19.00;78.80;;;;;;5052079;28;20519;-64
2022/05/20 01:52:16;;;;;;;4.27;2.90;;;19.00;78.70;;;;;;5052143;28;20518;-65
2022/05/20 01:54:58;;;;;;;7.10;3.90;;;19.10;79.00;;;;;;5051823;28;20439;-64
2022/05/20 01:57:31;;;;;;;9.50;5.17;;;19.00;78.90;;;;;;5052819;28;20444;-65
2022/05/20 02:00:05;;;;;;;5.60;3.93;;;19.00;78.80;;;;;;5050858;28;20460;-65
2022/05/20 02:02:38;;;;;;;4.60;3.17;;;19.00;78.60;;;;;;5052454;28;20447;-65
2022/05/20 02:05:10;;;;;;;4.50;3.33;;;19.00;78.30;;;;;;5051215;28;20444;-64
2022/05/20 02:07:42;;;;;;;4.87;3.07;;;18.90;79.10;;;;;;5052648;28;20424;-65
2022/05/20 02:10:13;;;;;;;3.70;3.03;;;18.80;79.00;;;;;;5050879;28;20517;-66
2022/05/20 02:12:46;;;;;;;6.30;3.30;;;18.80;78.70;;;;;;5052160;28;20496;-64
2022/05/20 02:15:19;;;;;;;5.57;3.00;;;18.80;78.80;;;;;;5051750;28;20449;-65
2022/05/20 02:17:52;;;;;;;9.13;5.57;;;18.70;79.20;;;;;;5052103;28;20467;-65
2022/05/20 02:20:25;;;;;;;4.30;3.23;;;18.60;79.70;;;;;;5050530;28;20524;-64
2022/05/20 02:22:56;;;;;;;4.57;2.80;;;18.60;79.90;;;;;;5052514;28;20527;-66
2022/05/20 02:25:28;;;;;;;3.67;3.10;;;18.60;79.90;;;;;;5051753;28;20776;-65
2022/05/20 02:27:59;;;;;;;4.20;3.33;;;18.60;80.10;;;;;;5052501;28;20481;-65
2022/05/20 02:30:31;;;;;;;5.60;3.50;;;18.60;80.20;;;;;;5050617;28;20433;-65
2022/05/20 02:33:06;;;;;;;5.37;3.67;;;18.60;80.60;;;;;;5052159;28;20476;-64
2022/05/20 02:35:34;;;;;;;6.20;4.17;;;18.60;80.80;;;;;;5051561;28;20479;-64
2022/05/20 02:38:06;;;;;;;5.50;3.90;;;18.50;81.50;;;;;;5052179;28;20528;-64
2022/05/20 02:40:33;;;;;;;7.20;4.70;;;18.40;82.30;;;;;;5049836;28;20483;-64
2022/05/20 02:43:02;;;;;;;5.40;2.90;;;18.40;82.40;;;;;;5051898;28;20831;-65
2022/05/20 02:45:29;;;;;;;6.00;3.60;;;18.40;82.20;;;;;;5051849;28;20439;-65
2022/05/20 02:47:56;;;;;;;5.23;3.40;;;18.50;82.80;;;;;;5050955;28;20954;-65
2022/05/20 02:50:23;;;;;;;5.03;3.60;;;18.50;82.80;;;;;;5052167;28;20445;-65
2022/05/20 02:52:50;;;;;;;4.27;3.50;;;18.40;82.60;;;;;;5051166;28;20800;-65
2022/05/20 02:55:17;;;;;;;5.33;2.97;;;18.40;83.30;;;;;;5052372;28;20425;-64
2022/05/20 02:57:45;;;;;;;7.13;3.90;;;18.40;83.00;;;;;;5050216;28;20523;-65
2022/05/20 03:05:44;;;;;;;4.67;3.50;;;18.40;83.00;;;;;;5055517;28;20489;-64
2022/05/20 03:08:11;;;;;;;4.87;3.17;;;18.40;83.50;;;;;;5054777;28;20441;-64
2022/05/20 03:10:38;;;;;;;4.80;2.90;;;18.40;83.30;;;;;;5055223;28;20448;-65
2022/05/20 03:13:07;;;;;;;5.50;3.37;;;18.40;83.70;;;;;;5054418;28;20559;-65
2022/05/20 03:15:37;;;;;;;4.83;3.93;;;18.40;83.70;;;;;;5054976;28;20436;-66
2022/05/20 03:18:05;;;;;;;9.40;4.73;;;18.40;83.40;;;;;;5054571;28;20469;-64
2022/05/20 03:20:32;;;;;;;6.13;4.27;;;18.40;84.30;;;;;;5055408;28;20520;-64
2022/05/20 03:22:59;;;;;;;4.87;3.53;;;18.40;84.20;;;;;;5054439;28;20447;-65
2022/05/20 03:25:26;;;;;;;5.93;4.10;;;18.30;84.30;;;;;;5055214;28;20436;-65
2022/05/20 03:27:53;;;;;;;5.73;3.17;;;18.20;85.00;;;;;;5054158;28;20524;-65
2022/05/20 03:30:20;;;;;;;4.00;2.97;;;18.20;85.10;;;;;;5055267;28;20524;-65
2022/05/20 03:32:48;;;;;;;4.60;3.10;;;18.20;85.10;;;;;;5054175;28;20491;-64
2022/05/20 03:35:16;;;;;;;5.40;3.07;;;18.20;85.50;;;;;;5055015;28;20449;-65
2022/05/20 03:37:43;;;;;;;4.40;3.03;;;18.20;85.40;;;;;;5054249;28;20437;-65
2022/05/20 03:40:11;;;;;;;4.20;3.13;;;18.20;85.80;;;;;;5054729;28;20448;-65
2022/05/20 03:42:37;;;;;;;4.47;3.20;;;18.20;86.10;;;;;;5052302;28;20528;-65
2022/05/20 03:45:05;;;;;;;4.30;3.33;;;18.20;86.60;;;;;;5055057;28;20441;-64
2022/05/20 03:47:32;;;;;;;7.30;3.53;;;18.10;86.70;;;;;;5053550;28;20460;-65
2022/05/20 03:50:00;;;;;;;4.23;3.53;;;18.00;87.00;;;;;;5054791;28;20850;-64
2022/05/20 03:52:27;;;;;;;5.43;3.27;;;18.00;87.40;;;;;;5053760;28;20914;-65
2022/05/20 03:54:54;;;;;;;5.27;3.17;;;18.00;87.90;;;;;;5054167;28;20437;-65
2022/05/20 03:57:21;;;;;;;5.57;2.87;;;17.90;87.90;;;;;;5053525;28;20443;-64
2022/05/20 03:59:48;;;;;;;3.73;3.00;;;18.00;88.10;;;;;;5054574;28;20437;-64
2022/05/20 04:02:15;;;;;;;5.10;3.77;;;17.90;88.20;;;;;;5054109;28;20501;-64
2022/05/20 04:04:45;;;;;;;4.60;3.60;;;18.00;88.30;;;;;;5054569;28;20894;-64
2022/05/20 04:07:15;;;;;;;5.67;3.20;;;18.00;88.00;;;;;;5054049;28;20516;-65
2022/05/20 04:09:42;;;;;;;4.90;3.40;;;18.10;87.60;;;;;;5054374;28;20542;-65
2022/05/20 04:12:24;;;;;;;6.93;3.50;;;18.10;87.60;;;;;;5052380;28;20437;-65
2022/05/20 04:14:51;;;;;;;4.20;3.40;;;18.10;88.00;;;;;;5054146;28;20448;-64
2022/05/20 04:17:18;;;;;;;3.93;2.97;;;18.10;87.90;;;;;;5053382;28;20441;-64
2022/05/20 04:19:45;;;;;;;4.17;3.43;;;18.10;87.70;;;;;;5054006;28;20441;-64
2022/05/20 04:22:16;;;;;;;3.90;2.97;;;18.20;88.00;;;;;;5053440;28;20528;-64
2022/05/20 04:24:42;;;;;;;4.40;3.47;;;18.30;87.60;;;;;;5053528;28;20538;-65
2022/05/20 04:27:10;;;;;;;7.10;3.30;;;18.30;87.20;;;;;;5053760;28;21019;-65
2022/05/20 04:29:37;;;;;;;7.60;3.80;;;18.40;87.00;;;;;;5053240;28;20440;-65
2022/05/20 04:32:05;;;;;;;4.40;3.00;;;18.50;87.20;;;;;;5053916;28;20440;-65
2022/05/20 04:34:32;;;;;;;4.27;3.37;;;18.50;86.90;;;;;;5052105;28;20567;-65
2022/05/20 04:36:59;;;;;;;6.07;3.40;;;18.60;87.10;;;;;;5053609;28;21045;-66
2022/05/20 04:39:27;;;;;;;6.80;3.83;;;18.60;87.00;;;;;;5053155;28;20451;-65
2022/05/20 04:47:25;;;;;;;6.17;3.60;;;18.80;86.30;;;;;;5053484;28;20614;-66
2022/05/20 04:49:52;;;;;;;3.80;2.87;;;18.90;86.00;;;;;;5052985;28;20436;-65
2022/05/20 04:52:20;;;;;;;7.00;3.37;;;18.90;85.50;;;;;;5053553;28;20524;-65
2022/05/20 04:54:50;;;;;;;13.43;4.20;;;19.00;85.40;;;;;;5052495;28;20482;-65
2022/05/20 04:57:29;;;;;;;4.00;3.40;;;19.00;85.20;;;;;;5053727;28;20522;-64
2022/05/20 05:00:00;;;;;;;3.73;2.87;;;19.00;85.40;;;;;;5052641;28;20437;-65
2022/05/20 05:02:27;;;;;;;6.20;4.07;;;19.10;85.50;;;;;;5051932;28;20437;-65
2022/05/20 05:04:55;;;;;;;4.93;3.30;;;19.10;85.40;;;;;;5052381;28;20794;-65
2022/05/20 05:07:22;;;;;;;5.20;3.70;;;19.20;84.70;;;;;;5052632;28;20495;-67
2022/05/20 05:09:51;;;;;;;8.40;3.13;;;19.20;83.70;;;;;;5053196;28;20523;-64
2022/05/20 05:12:19;;;;;;;4.50;2.90;;;19.30;83.70;;;;;;5052630;28;20494;-64
2022/05/20 05:14:47;;;;;;;7.93;3.10;;;19.30;83.10;;;;;;5052725;28;20917;-65
2022/05/20 05:17:16;;;;;;;5.27;3.40;;;19.40;83.10;;;;;;5052684;28;20532;-67
2022/05/20 05:19:48;;;;;;;4.70;3.20;;;19.50;82.50;;;;;;5052582;28;20876;-65
2022/05/20 05:22:15;;;;;;;4.67;3.30;;;19.50;81.50;;;;;;5052381;28;20519;-68
2022/05/20 05:24:42;;;;;;;5.30;3.63;;;19.50;81.60;;;;;;5052180;28;20451;-65
2022/05/20 05:27:11;;;;;;;3.90;2.90;;;19.60;83.20;;;;;;5051002;28;20437;-66
2022/05/20 05:29:39;;;;;;;4.43;3.53;;;19.60;82.70;;;;;;5035668;28;20444;-66
2022/05/20 05:32:07;;;;;;;4.80;3.70;;;19.60;80.40;;;;;;5043179;28;20440;-65
2022/05/20 05:34:35;;;;;;;5.87;3.27;;;19.60;81.00;;;;;;5050543;28;20882;-65
2022/05/20 05:37:03;;;;;;;3.60;3.10;;;19.60;81.00;;;;;;5051056;28;20468;-65
2022/05/20 05:39:29;;;;;;;4.93;2.80;;;19.70;81.30;;;;;;5051155;28;20495;-66
2022/05/20 05:41:59;;;;;;;5.27;3.90;;;19.80;81.20;;;;;;5051405;28;20524;-65
2022/05/20 05:44:28;;;;;;;5.10;3.30;;;19.80;81.10;;;;;;5051014;28;20433;-65
2022/05/20 05:46:55;;;;;;;3.50;2.60;;;19.80;80.70;;;;;;5050549;28;20476;-65
2022/05/20 05:49:22;;;;;;;7.40;3.33;;;19.80;80.20;;;;;;5052698;28;20868;-65
2022/05/20 05:51:49;;;;;;;4.93;3.07;;;19.90;80.50;;;;;;5052444;28;20483;-66
2022/05/20 05:54:18;;;;;;;4.60;3.20;;;19.90;81.30;;;;;;5051702;28;20480;-65
2022/05/20 05:56:44;;;;;;;8.03;3.10;;;20.00;82.00;;;;;;5052520;28;20438;-65
2022/05/20 05:59:11;;;;;;;7.20;3.40;;;20.10;80.90;;;;;;5052041;28;20445;-64
2022/05/20 06:01:40;;;;;;;6.50;3.00;;;20.20;80.70;;;;;;5052792;28;20443;-65
2022/05/20 06:04:06;;;;;;;6.83;3.03;;;20.20;81.10;;;;;;5051730;28;20437;-66
2022/05/20 06:06:33;;;;;;;4.70;3.00;;;20.30;80.70;;;;;;5052820;28;20441;-65
2022/05/20 06:09:00;;;;;;;4.03;2.77;;;20.40;81.10;;;;;;5051623;28;20433;-65
2022/05/20 06:11:27;;;;;;;5.63;2.67;;;20.40;78.90;;;;;;5050428;28;20437;-65
2022/05/20 06:13:54;;;;;;;5.70;3.00;;;20.50;79.40;;;;;;5052579;28;20615;-66
2022/05/20 06:16:22;;;;;;;3.67;3.13;;;20.60;79.00;;;;;;5050440;28;20517;-65
2022/05/20 06:18:51;;;;;;;4.80;3.00;;;20.80;77.20;;;;;;5052668;28;20440;-67
2022/05/20 06:21:18;;;;;;;8.10;3.90;;;20.90;75.60;;;;;;5052415;28;20472;-65
2022/05/20 06:23:45;;;;;;;6.43;3.40;;;20.90;75.90;;;;;;5052238;28;20437;-65
2022/05/20 06:26:12;;;;;;;3.10;2.77;;;21.00;76.00;;;;;;5052572;28;20873;-65
2022/05/20 06:28:39;;;;;;;5.60;3.07;;;21.10;74.30;;;;;;5052130;28;20437;-65
2022/05/20 06:31:06;;;;;;;3.70;2.93;;;21.10;73.40;;;;;;5052148;28;20447;-67
2022/05/20 06:33:33;;;;;;;4.27;3.37;;;21.20;73.80;;;;;;5051726;28;20976;-65
2022/05/20 06:41:29;;;;;;;4.53;2.53;;;21.50;73.00;;;;;;5055383;28;20511;-67
2022/05/20 06:43:57;;;;;;;4.70;2.93;;;21.70;73.10;;;;;;5054414;28;20432;-65
2022/05/20 06:46:27;;;;;;;3.97;3.00;;;21.80;73.30;;;;;;5054714;28;20443;-66
2022/05/20 06:48:55;;;;;;;4.57;3.17;;;22.00;72.30;;;;;;5051955;28;20464;-65
2022/05/20 06:51:27;;;;;;;4.17;2.93;;;22.00;70.70;;;;;;5056262;28;20424;-65
2022/05/20 06:53:57;;;;;;;4.60;2.87;;;22.20;70.10;;;;;;5056285;28;20516;-65
2022/05/20 06:56:30;;;;;;;5.70;3.23;;;22.30;69.40;;;;;;5055925;28;20788;-65
2022/05/20 06:58:58;;;;;;;3.03;2.40;;;22.50;70.40;;;;;;5055568;28;20442;-66
2022/05/20 07:01:26;;;;;;;3.70;3.03;;;22.70;70.10;;;;;;5051760;28;20436;-66
2022/05/20 07:03:53;;;;;;;9.03;3.63;;;22.80;70.80;;;;;;5054393;28;20512;-66
2022/05/20 07:06:21;;;;;;;4.17;3.67;;;23.00;70.80;;;;;;5054246;28;20437;-65
2022/05/20 07:08:49;;;;;;;3.77;3.37;;;23.20;69.50;;;;;;5054370;28;20433;-65
2022/05/20 07:11:18;;;;;;;3.97;3.20;;;23.30;67.00;;;;;;5054754;28;20907;-65
2022/05/20 07:13:45;;;;;;;7.43;3.00;;;23.40;67.70;;;;;;5054037;28;20993;-65
2022/05/20 07:16:12;;;;;;;5.07;3.00;;;23.60;66.20;;;;;;5054691;28;20795;-65
2022/05/20 07:18:39;;;;;;;3.80;2.83;;;23.70;65.60;;;;;;5054337;28;20528;-65
2022/05/20 07:21:06;;;;;;;4.50;3.07;;;23.90;62.40;;;;;;5054414;28;20907;-65
2022/05/20 07:23:34;;;;;;;4.87;3.10;;;24.00;63.90;;;;;;5054129;28;20569;-65
2022/05/20 07:26:02;;;;;;;7.57;3.27;;;24.10;63.10;;;;;;5053885;28;20438;-64
2022/05/20 07:28:30;;;;;;;7.30;3.70;;;24.20;63.30;;;;;;5053827;28;20519;-63
2022/05/20 07:30:57;;;;;;;3.97;2.93;;;24.30;63.30;;;;;;5054299;28;20433;-63
2022/05/20 07:33:24;;;;;;;4.03;3.27;;;24.50;63.50;;;;;;5054262;28;20821;-64
2022/05/20 07:35:51;;;;;;;8.47;3.30;;;24.70;63.00;;;;;;5054450;28;20512;-64
2022/05/20 07:38:18;;;;;;;3.23;2.43;;;24.90;62.60;;;;;;5053531;28;20888;-63
2022/05/20 07:40:45;;;;;;;4.10;3.23;;;25.10;60.80;;;;;;5054015;28;20443;-63
2022/05/20 07:43:13;;;;;;;4.73;2.77;;;25.20;59.30;;;;;;5054230;28;20449;-63
2022/05/20 07:45:41;;;;;;;3.80;3.07;;;25.30;59.50;;;;;;5050407;28;20605;-63
2022/05/20 07:48:08;;;;;;;4.43;3.40;;;25.40;58.70;;;;;;5053185;28;20545;-64
2022/05/20 07:50:40;;;;;;;5.97;2.70;;;25.60;57.30;;;;;;5052698;28;20429;-63
2022/05/20 07:53:23;;;;;;;8.67;3.70;;;25.50;57.60;;;;;;5053160;28;20768;-63
2022/05/20 07:55:54;;;;;;;7.00;2.90;;;25.60;57.00;;;;;;5052693;28;20984;-63
2022/05/20 07:58:26;;;;;;;4.90;2.90;;;25.60;57.40;;;;;;5053670;28;20444;-63
2022/05/20 08:00:54;;;;;;;3.60;2.90;;;25.80;57.90;;;;;;5053850;28;20446;-64
2022/05/20 08:06:04;;;;;;;4.57;3.10;;;26.10;58.40;;;;;;5053054;28;20427;-63
2022/05/20 08:08:31;;;;;;;4.03;3.10;;;26.30;57.60;;;;;;5052881;28;20429;-63
2022/05/20 08:11:00;;;;;;;7.70;3.60;;;26.50;57.50;;;;;;5053051;28;20989;-63
2022/05/20 08:13:28;;;;;;;4.47;3.00;;;26.70;56.40;;;;;;5050919;28;20444;-64
2022/05/20 08:15:55;;;;;;;7.30;2.50;;;26.70;55.10;;;;;;5052846;28;20484;-63
2022/05/20 08:18:22;;;;;;;5.97;2.87;;;26.80;55.00;;;;;;5052759;28;20532;-65
2022/05/20 08:20:49;;;;;;;3.63;2.70;;;27.00;55.90;;;;;;5053332;28;20440;-65
2022/05/20 08:23:17;;;;;;;4.90;2.67;;;27.20;55.20;;;;;;5051604;28;20437;-65
2022/05/20 08:25:43;;;;;;;4.20;3.50;;;27.30;51.60;;;;;;5052887;28;20445;-65
2022/05/20 08:28:10;;;;;;;4.67;3.57;;;27.30;50.30;;;;;;5052996;28;20437;-65
2022/05/20 08:30:41;;;;;;;3.90;2.83;;;27.40;50.70;;;;;;5054093;28;20440;-66
2022/05/20 08:33:07;;;;;;;5.03;4.00;;;27.60;52.20;;;;;;5053989;28;20462;-66
2022/05/20 08:35:34;;;;;;;6.13;3.10;;;27.80;50.70;;;;;;5053889;28;20541;-65
2022/05/20 08:38:04;;;;;;;4.20;2.70;;;27.90;48.50;;;;;;5053640;28;20926;-65
2022/05/20 08:40:37;;;;;;;7.37;3.00;;;28.00;47.70;;;;;;5053788;28;20429;-65
2022/05/20 08:43:04;;;;;;;4.13;3.13;;;28.10;48.10;;;;;;5053921;28;20438;-65
2022/05/20 08:45:32;;;;;;;4.50;3.10;;;28.30;47.90;;;;;;5053744;28;20518;-66
2022/05/20 08:48:00;;;;;;;6.00;2.63;;;28.40;45.90;;;;;;5053354;28;20988;-63
2022/05/20 08:50:33;;;;;;;6.10;2.50;;;28.60;44.40;;;;;;5053634;28;20463;-64
2022/05/20 08:53:00;;;;;;;3.40;2.77;;;28.90;43.70;;;;;;5053015;28;20512;-64
2022/05/20 08:55:28;;;;;;;7.27;2.67;;;29.00;44.50;;;;;;5053390;28;20570;-64
2022/05/20 08:57:59;;;;;;;3.30;2.40;;;29.20;41.70;;;;;;5053028;28;20451;-64
2022/05/20 09:00:27;;;;;;;5.47;2.70;;;29.30;40.10;;;;;;5053876;28;20833;-63
2022/05/20 09:02:54;;;;;;;5.37;2.87;;;29.40;40.30;;;;;;5053815;28;20918;-64
2022/05/20 09:05:25;;;;;;;4.73;3.50;;;29.50;38.80;;;;;;5053890;28;20815;-63
2022/05/20 09:08:02;;;;;;;6.10;2.90;;;29.70;39.80;;;;;;5053847;28;20532;-64
2022/05/20 09:10:33;;;;;;;5.70;2.87;;;29.80;39.90;;;;;;5053688;28;20425;-64
2022/05/20 09:13:13;;;;;;;3.83;2.47;;;30.00;39.70;;;;;;5053761;28;20443;-63
2022/05/20 09:15:46;;;;;;;5.57;3.20;;;30.00;38.10;;;;;;5053285;28;20476;-64
2022/05/20 09:18:30;;;;;;;4.73;2.80;;;30.00;39.70;;;;;;5053553;28;20481;-63
2022/05/20 09:20:59;;;;;;;5.17;2.70;;;30.20;39.00;;;;;;5052968;28;20433;-65
2022/05/20 09:23:27;;;;;;;4.03;2.70;;;30.30;38.90;;;;;;5049217;28;20435;-64
2022/05/20 09:26:04;;;;;;;3.80;2.30;;;30.40;38.10;;;;;;5051623;28;20841;-65
2022/05/20 09:28:39;;;;;;;4.43;2.60;;;30.50;38.20;;;;;;5049235;28;20436;-64
2022/05/20 09:31:21;;;;;;;4.30;3.23;;;30.60;36.20;;;;;;5051566;28;20432;-64
2022/05/20 09:33:51;;;;;;;5.10;3.10;;;30.70;36.60;;;;;;5052089;28;20512;-63
2022/05/20 09:36:46;;;;;;;4.33;2.97;;;30.80;35.80;;;;;;5051721;28;20496;-63
2022/05/20 09:39:17;;;;;;;3.30;2.70;;;31.00;36.40;;;;;;5051590;28;20433;-63
2022/05/20 09:41:51;;;;;;;5.20;2.97;;;31.00;35.50;;;;;;5051385;28;20539;-64
2022/05/20 09:44:22;;;;;;;4.80;3.23;;;31.10;34.60;;;;;;5052102;28;20841;-63
2022/05/20 09:46:53;;;;;;;4.90;2.87;;;31.20;35.60;;;;;;5051817;28;20923;-65
2022/05/20 09:49:33;;;;;;;5.43;3.70;;;31.20;34.00;;;;;;5051960;28;20971;-63
2022/05/20 09:52:02;;;;;;;4.20;3.00;;;31.20;34.00;;;;;;5048937;28;20525;-64
2022/05/20 09:54:33;;;;;;;6.80;3.90;;;31.30;35.00;;;;;;5051899;28;20472;-64
2022/05/20 09:57:10;;;;;;;4.00;2.93;;;31.30;35.90;;;;;;5049870;28;20935;-65
2022/05/20 09:59:46;;;;;;;6.57;3.93;;;31.50;32.70;;;;;;5050499;28;20440;-64
2022/05/20 10:02:23;;;;;;;7.90;3.60;;;31.50;34.30;;;;;;5051344;28;20436;-64
2022/05/20 10:05:05;;;;;;;6.97;3.50;;;31.50;34.40;;;;;;5051744;28;20432;-64
2022/05/20 10:07:47;;;;;;;6.73;3.50;;;31.70;33.70;;;;;;5050795;28;20433;-64
2022/05/20 10:10:21;;;;;;;3.90;3.00;;;31.70;34.60;;;;;;5055153;28;20437;-63
2022/05/20 10:12:51;;;;;;;4.03;3.10;;;31.90;35.90;;;;;;5055776;28;20915;-64
2022/05/20 10:15:23;;;;;;;5.90;4.27;;;32.10;36.10;;;;;;5055723;28;20480;-64
2022/05/20 10:18:07;;;;;;;3.70;3.03;;;32.10;34.70;;;;;;5054480;28;20487;-65
2022/05/20 10:20:39;;;;;;;4.77;2.73;;;32.10;34.20;;;;;;5053479;28;20783;-64
2022/05/20 10:23:16;;;;;;;4.53;3.10;;;32.10;33.10;;;;;;5053677;28;20428;-64
2022/05/20 10:25:51;;;;;;;4.40;2.80;;;32.20;34.10;;;;;;5055746;28;20436;-64
2022/05/20 10:34:16;;;;;;;6.20;2.97;;;32.40;34.20;;;;;;5055471;28;20555;-64
2022/05/20 10:36:57;;;;;;;5.63;3.30;;;32.40;33.40;;;;;;5053579;28;20993;-63
2022/05/20 10:39:44;;;;;;;3.57;3.10;;;32.50;33.70;;;;;;5054019;28;20443;-64
2022/05/20 10:42:28;;;;;;;7.37;3.07;;;32.60;32.00;;;;;;5054475;28;20482;-64
2022/05/20 10:51:13;;;;;;;4.73;3.23;;;32.70;33.20;;;;;;5054970;28;20503;-63
2022/05/20 10:53:51;;;;;;;5.10;3.70;;;32.70;33.20;;;;;;5053420;28;20421;-64
2022/05/20 10:56:48;;;;;;;8.50;3.10;;;32.70;31.90;;;;;;5054830;28;20512;-64
2022/05/20 10:59:45;;;;;;;5.73;3.40;;;32.70;32.10;;;;;;5052066;28;20431;-65
2022/05/20 11:02:29;;;;;;;4.43;3.07;;;32.70;32.50;;;;;;5053929;28;20524;-64
2022/05/20 11:05:28;;;;;;;4.30;3.30;;;32.70;31.20;;;;;;5049539;28;20440;-65
2022/05/20 11:08:10;;;;;;;7.87;3.67;;;32.70;30.70;;;;;;5050780;28;20815;-64
2022/05/20 11:11:01;;;;;;;6.17;2.80;;;32.70;30.20;;;;;;5054129;28;20472;-64
2022/05/20 11:13:48;;;;;;;5.97;3.37;;;32.60;29.90;;;;;;5052517;28;20484;-65
2022/05/20 11:16:27;;;;;;;4.27;2.90;;;32.70;29.80;;;;;;5053894;28;20488;-63
2022/05/20 11:19:16;;;;;;;4.77;3.43;;;32.70;28.70;;;;;;5050362;28;20445;-66
2022/05/20 11:21:57;;;;;;;5.23;3.20;;;32.70;30.00;;;;;;5052225;28;20503;-64
2022/05/20 11:24:49;;;;;;;4.33;3.37;;;32.80;29.80;;;;;;5051583;28;20941;-63
2022/05/20 11:27:45;;;;;;;6.70;3.03;;;32.80;29.50;;;;;;5053849;28;20480;-64
2022/05/20 11:30:24;;;;;;;9.40;3.33;;;32.90;29.40;;;;;;5048550;28;20437;-64
2022/05/20 11:33:14;;;;;;;3.97;2.90;;;33.00;29.70;;;;;;5050785;28;20451;-64
2022/05/20 11:35:59;;;;;;;4.87;3.23;;;33.10;29.90;;;;;;5053261;28;20908;-65
2022/05/20 11:39:02;;;;;;;4.10;3.50;;;33.20;29.80;;;;;;5053552;28;20432;-67
2022/05/20 11:41:36;;;;;;;4.57;3.00;;;33.20;32.10;;;;;;5049657;28;20461;-66
2022/05/20 11:44:41;;;;;;;4.03;2.80;;;33.20;31.10;;;;;;5052135;28;20480;-65
2022/05/20 11:47:40;;;;;;;5.13;3.50;;;33.20;28.40;;;;;;5052491;28;20437;-65
2022/05/20 11:50:24;;;;;;;3.93;2.93;;;33.20;29.90;;;;;;5052223;28;20468;-65
2022/05/20 11:52:58;;;;;;;8.63;3.70;;;33.00;27.70;;;;;;5052950;28;20448;-65
2022/05/20 11:55:32;;;;;;;5.07;3.47;;;32.90;28.80;;;;;;5053961;28;20488;-65
2022/05/20 11:58:03;;;;;;;6.90;3.60;;;32.80;28.90;;;;;;5050458;28;20974;-65
2022/05/20 12:00:32;;;;;;;4.30;3.37;;;32.80;29.10;;;;;;5050446;28;20533;-65
2022/05/20 12:03:05;;;;;;;7.57;3.00;;;32.90;29.80;;;;;;5053720;28;20448;-67
2022/05/20 12:05:36;;;;;;;5.17;3.07;;;32.90;30.60;;;;;;5053412;28;20441;-65
2022/05/20 12:08:03;;;;;;;5.77;3.53;;;32.90;28.90;;;;;;5053529;28;20440;-66
2022/05/20 12:10:49;;;;;;;3.73;2.70;;;32.80;29.90;;;;;;5053079;28;20597;-64
2022/05/20 12:13:20;;;;;;;7.03;3.33;;;32.80;28.90;;;;;;5053308;28;20520;-65
2022/05/20 12:16:11;;;;;;;5.30;2.80;;;32.80;29.80;;;;;;5053616;28;20480;-65
2022/05/20 12:24:35;;;;;;;5.00;3.50;;;32.90;29.40;;;;;;5053145;28;20420;-65
2022/05/20 12:27:03;;;;;;;5.67;3.27;;;32.90;29.80;;;;;;5050292;28;20447;-65
2022/05/20 12:29:59;;;;;;;6.87;3.30;;;32.90;29.50;;;;;;5049858;28;20441;-65
2022/05/20 12:32:48;;;;;;;4.67;3.17;;;32.90;29.30;;;;;;5052645;28;20852;-66
2022/05/20 12:35:24;;;;;;;7.90;3.37;;;32.90;31.10;;;;;;5049495;28;20567;-65
2022/05/20 12:38:24;;;;;;;6.20;3.27;;;32.90;29.70;;;;;;5052605;28;20534;-65
2022/05/20 12:40:59;;;;;;;6.90;3.27;;;32.90;30.00;;;;;;5051350;28;20520;-65
2022/05/20 12:43:54;;;;;;;4.60;3.80;;;32.80;29.00;;;;;;5052938;28;20456;-65
2022/05/20 12:46:42;;;;;;;6.07;3.40;;;32.70;29.40;;;;;;5053150;28;20437;-65
2022/05/20 12:49:09;;;;;;;6.30;3.33;;;32.70;30.40;;;;;;5049173;28;20479;-65
2022/05/20 12:51:47;;;;;;;7.17;3.17;;;32.60;30.00;;;;;;5052373;28;20536;-65
2022/05/20 12:54:24;;;;;;;8.00;3.77;;;32.60;30.90;;;;;;5052650;28;20559;-67
2022/05/20 12:56:56;;;;;;;7.70;3.23;;;32.70;30.60;;;;;;5052705;28;21049;-66
2022/05/20 12:59:25;;;;;;;4.93;2.80;;;32.80;29.20;;;;;;5052621;28;20469;-65
2022/05/20 13:01:58;;;;;;;4.00;3.30;;;32.80;30.00;;;;;;5052186;28;20440;-65
2022/05/20 13:04:28;;;;;;;4.33;2.97;;;32.90;29.50;;;;;;5052469;28;20926;-65
2022/05/20 13:06:59;;;;;;;8.90;3.70;;;32.90;29.10;;;;;;5052546;28;20769;-65
2022/05/20 13:09:35;;;;;;;7.23;3.77;;;32.80;30.10;;;;;;5052609;28;20449;-66
2022/05/20 13:12:07;;;;;;;3.77;3.17;;;32.90;29.90;;;;;;5052165;28;20532;-66
2022/05/20 13:14:35;;;;;;;4.70;3.30;;;32.80;29.20;;;;;;5052577;28;20534;-65
2022/05/20 13:17:04;;;;;;;6.10;3.53;;;32.70;28.10;;;;;;5052119;28;20551;-65
2022/05/20 13:19:40;;;;;;;5.50;3.53;;;32.70;28.60;;;;;;5051544;28;20437;-65
2022/05/20 13:22:11;;;;;;;6.03;3.50;;;32.50;28.20;;;;;;5048711;28;20986;-65
2022/05/20 13:24:39;;;;;;;4.33;2.93;;;32.50;29.20;;;;;;5047969;28;20527;-65
2022/05/20 13:27:10;;;;;;;8.13;4.03;;;32.50;29.80;;;;;;5051710;28;20529;-65
2022/05/20 13:29:39;;;;;;;3.97;3.07;;;32.50;31.10;;;;;;5051825;28;20854;-65
2022/05/20 13:32:18;;;;;;;6.30;3.40;;;32.60;30.20;;;;;;5051959;28;20782;-65
2022/05/20 13:34:47;;;;;;;7.57;4.20;;;32.60;30.90;;;;;;5049042;28;20472;-65
2022/05/20 13:37:19;;;;;;;4.60;3.00;;;32.60;30.00;;;;;;5052019;28;20520;-65
2022/05/20 13:39:46;;;;;;;6.10;3.20;;;32.60;29.00;;;;;;5050843;28;21010;-65
2022/05/20 13:42:17;;;;;;;5.10;3.30;;;32.60;29.80;;;;;;5051441;28;20453;-65
2022/05/20 13:44:45;;;;;;;4.47;2.87;;;32.50;30.00;;;;;;5052074;28;20524;-66
2022/05/20 13:50:07;;;;;;;9.60;6.87;;;32.50;32.00;;;;;;5027065;28;20760;-65
2022/05/20 13:52:36;;;;;;;9.53;7.17;;;32.60;31.30;;;;;;5051808;28;20484;-65